sensor_id;sensor_type;location;lat;lon;timestamp;pressure;altitude;pressure_sealevel;temperature;humidity
60319;BME280;46163;52.306;5.634;2022-11-27T00:00:24;102342.59;;;16.58;59.89
60319;BME280;46163;52.306;5.634;2022-11-27T00:02:50;102338.25;;;16.57;60.00
60319;BME280;46163;52.306;5.634;2022-11-27T00:05:15;102339.28;;;16.56;60.03
60319;BME280;46163;52.306;5.634;2022-11-27T00:07:41;102334.13;;;16.54;59.89
60319;BME280;46163;52.306;5.634;2022-11-27T00:10:07;102333.31;;;16.54;59.84
60319;BME280;46163;52.306;5.634;2022-11-27T00:12:33;102328.53;;;16.49;59.81
60319;BME280;46163;52.306;5.634;2022-11-27T00:14:59;102326.66;;;16.50;59.85
60319;BME280;46163;52.306;5.634;2022-11-27T00:17:24;102327.69;;;16.49;59.65
60319;BME280;46163;52.306;5.634;2022-11-27T00:19:50;102326.25;;;16.46;59.74
60319;BME280;46163;52.306;5.634;2022-11-27T00:22:16;102318.63;;;16.43;59.73
60319;BME280;46163;52.306;5.634;2022-11-27T00:24:44;102315.09;;;16.43;59.70
60319;BME280;46163;52.306;5.634;2022-11-27T00:27:10;102297.91;;;16.37;59.95
60319;BME280;46163;52.306;5.634;2022-11-27T00:29:36;102306.59;;;16.39;59.75
60319;BME280;46163;52.306;5.634;2022-11-27T00:32:01;102299.16;;;16.34;59.79
60319;BME280;46163;52.306;5.634;2022-11-27T00:34:27;102298.75;;;16.37;59.80
60319;BME280;46163;52.306;5.634;2022-11-27T00:36:53;102304.53;;;16.34;59.71
60319;BME280;46163;52.306;5.634;2022-11-27T00:39:19;102291.28;;;16.33;59.69
60319;BME280;46163;52.306;5.634;2022-11-27T00:41:45;102285.09;;;16.32;59.75
60319;BME280;46163;52.306;5.634;2022-11-27T00:44:12;102285.50;;;16.29;59.74
60319;BME280;46163;52.306;5.634;2022-11-27T00:46:38;102281.78;;;16.30;59.71
60319;BME280;46163;52.306;5.634;2022-11-27T00:49:06;102289.22;;;16.28;59.71
60319;BME280;46163;52.306;5.634;2022-11-27T00:51:32;102289.63;;;16.25;59.53
60319;BME280;46163;52.306;5.634;2022-11-27T00:53:59;102289.63;;;16.25;59.71
60319;BME280;46163;52.306;5.634;2022-11-27T00:56:29;102277.22;;;16.24;59.63
60319;BME280;46163;52.306;5.634;2022-11-27T00:58:57;102285.47;;;16.23;59.77
60319;BME280;46163;52.306;5.634;2022-11-27T01:01:28;102289.19;;;16.22;59.65
60319;BME280;46163;52.306;5.634;2022-11-27T01:03:56;102290.44;;;16.19;59.59
60319;BME280;46163;52.306;5.634;2022-11-27T01:06:23;102291.47;;;16.18;59.60
60319;BME280;46163;52.306;5.634;2022-11-27T01:08:48;102287.13;;;16.17;59.54
60319;BME280;46163;52.306;5.634;2022-11-27T01:11:17;102289.00;;;16.17;59.68
60319;BME280;46163;52.306;5.634;2022-11-27T01:13:44;102298.06;;;16.16;59.59
60319;BME280;46163;52.306;5.634;2022-11-27T01:16:21;102294.75;;;16.14;59.71
60319;BME280;46163;52.306;5.634;2022-11-27T01:18:48;102289.38;;;16.14;59.51
60319;BME280;46163;52.306;5.634;2022-11-27T01:21:18;102278.22;;;16.10;59.56
60319;BME280;46163;52.306;5.634;2022-11-27T01:23:45;102262.13;;;16.10;59.55
60319;BME280;46163;52.306;5.634;2022-11-27T01:26:11;102254.44;;;16.07;59.55
60319;BME280;46163;52.306;5.634;2022-11-27T01:28:37;102249.06;;;16.07;59.46
60319;BME280;46163;52.306;5.634;2022-11-27T01:31:09;102249.28;;;16.05;59.60
60319;BME280;46163;52.306;5.634;2022-11-27T01:33:35;102239.56;;;16.04;59.64
60319;BME280;46163;52.306;5.634;2022-11-27T01:36:03;102246.19;;;16.02;59.43
60319;BME280;46163;52.306;5.634;2022-11-27T01:38:30;102249.69;;;16.02;59.53
60319;BME280;46163;52.306;5.634;2022-11-27T01:41:05;102255.28;;;16.01;59.43
60319;BME280;46163;52.306;5.634;2022-11-27T01:51:35;102230.03;;;15.95;59.89
60319;BME280;46163;52.306;5.634;2022-11-27T01:54:01;102220.34;;;15.94;59.46
60319;BME280;46163;52.306;5.634;2022-11-27T01:56:27;102216.22;;;15.92;59.64
60319;BME280;46163;52.306;5.634;2022-11-27T01:58:56;102198.00;;;15.87;59.61
60319;BME280;46163;52.306;5.634;2022-11-27T02:01:22;102195.75;;;15.91;59.61
60319;BME280;46163;52.306;5.634;2022-11-27T02:03:51;102178.38;;;15.87;59.29
60319;BME280;46163;52.306;5.634;2022-11-27T02:06:20;102182.34;;;15.91;59.44
60319;BME280;46163;52.306;5.634;2022-11-27T02:08:46;102170.13;;;15.88;59.28
60319;BME280;46163;52.306;5.634;2022-11-27T02:14:14;102166.00;;;15.86;59.41
60319;BME280;46163;52.306;5.634;2022-11-27T02:21:59;102157.34;;;15.83;59.38
60319;BME280;46163;52.306;5.634;2022-11-27T02:24:49;102154.84;;;15.82;59.36
60319;BME280;46163;52.306;5.634;2022-11-27T02:27:32;102158.34;;;15.76;59.44
60319;BME280;46163;52.306;5.634;2022-11-27T02:30:05;102157.09;;;15.78;59.44
60319;BME280;46163;52.306;5.634;2022-11-27T02:32:37;102142.84;;;15.78;59.18
60319;BME280;46163;52.306;5.634;2022-11-27T02:35:24;102134.41;;;15.74;59.39
60319;BME280;46163;52.306;5.634;2022-11-27T02:37:59;102147.41;;;15.77;59.30
60319;BME280;46163;52.306;5.634;2022-11-27T02:40:41;102155.44;;;15.77;59.45
60319;BME280;46163;52.306;5.634;2022-11-27T02:43:19;102148.63;;;15.75;59.36
60319;BME280;46163;52.306;5.634;2022-11-27T02:45:48;102156.06;;;15.73;59.26
60319;BME280;46163;52.306;5.634;2022-11-27T02:48:18;102147.59;;;15.69;59.29
60319;BME280;46163;52.306;5.634;2022-11-27T02:50:45;102149.22;;;15.70;59.41
60319;BME280;46163;52.306;5.634;2022-11-27T02:53:27;102161.63;;;15.71;59.17
60319;BME280;46163;52.306;5.634;2022-11-27T02:55:54;102164.50;;;15.70;59.64
60319;BME280;46163;52.306;5.634;2022-11-27T02:58:24;102167.41;;;15.68;59.31
60319;BME280;46163;52.306;5.634;2022-11-27T03:00:51;102171.94;;;15.68;59.24
60319;BME280;46163;52.306;5.634;2022-11-27T03:03:24;102169.47;;;15.66;59.22
60319;BME280;46163;52.306;5.634;2022-11-27T03:05:53;102170.72;;;15.64;59.15
60319;BME280;46163;52.306;5.634;2022-11-27T03:10:59;102147.19;;;15.66;59.38
60319;BME280;46163;52.306;5.634;2022-11-27T03:13:28;102132.66;;;15.60;59.16
60319;BME280;46163;52.306;5.634;2022-11-27T03:16:14;102125.66;;;15.59;59.10
60319;BME280;46163;52.306;5.634;2022-11-27T03:18:53;102132.66;;;15.60;59.16
60319;BME280;46163;52.306;5.634;2022-11-27T03:21:35;102133.91;;;15.58;59.37
60319;BME280;46163;52.306;5.634;2022-11-27T03:24:02;102124.22;;;15.57;59.32
60319;BME280;46163;52.306;5.634;2022-11-27T03:26:28;102130.41;;;15.57;59.30
60319;BME280;46163;52.306;5.634;2022-11-27T03:28:54;102127.91;;;15.55;59.25
60319;BME280;46163;52.306;5.634;2022-11-27T03:31:22;102139.47;;;15.56;59.20
60319;BME280;46163;52.306;5.634;2022-11-27T03:33:50;102136.78;;;15.56;59.26
60319;BME280;46163;52.306;5.634;2022-11-27T03:36:19;102135.97;;;15.55;59.15
60319;BME280;46163;52.306;5.634;2022-11-27T03:38:46;102137.19;;;15.53;59.07
60319;BME280;46163;52.306;5.634;2022-11-27T03:41:52;102143.56;;;15.52;59.17
60319;BME280;46163;52.306;5.634;2022-11-27T03:45:00;102141.94;;;15.51;58.94
60319;BME280;46163;52.306;5.634;2022-11-27T03:47:53;102129.13;;;15.46;59.08
60319;BME280;46163;52.306;5.634;2022-11-27T03:55:54;102114.03;;;15.45;59.09
60319;BME280;46163;52.306;5.634;2022-11-27T03:58:40;102105.00;;;15.46;58.95
60319;BME280;46163;52.306;5.634;2022-11-27T04:01:10;102115.91;;;15.45;59.01
60319;BME280;46163;52.306;5.634;2022-11-27T04:03:38;102112.38;;;15.44;59.10
60319;BME280;46163;52.306;5.634;2022-11-27T04:06:04;102115.69;;;15.40;59.18
60319;BME280;46163;52.306;5.634;2022-11-27T04:08:29;102113.63;;;15.42;59.17
60319;BME280;46163;52.306;5.634;2022-11-27T04:10:55;102108.66;;;15.39;58.95
60319;BME280;46163;52.306;5.634;2022-11-27T04:13:21;102100.00;;;15.43;59.21
60319;BME280;46163;52.306;5.634;2022-11-27T04:15:46;102105.16;;;15.38;59.02
60319;BME280;46163;52.306;5.634;2022-11-27T04:18:13;102111.97;;;15.41;59.11
60319;BME280;46163;52.306;5.634;2022-11-27T04:20:39;102106.59;;;15.41;59.10
60319;BME280;46163;52.306;5.634;2022-11-27T04:23:04;102104.97;;;15.40;59.34
60319;BME280;46163;52.306;5.634;2022-11-27T04:25:30;102097.13;;;15.38;59.26
60319;BME280;46163;52.306;5.634;2022-11-27T04:27:56;102098.78;;;15.39;59.39
60319;BME280;46163;52.306;5.634;2022-11-27T04:30:22;102093.41;;;15.39;59.38
60319;BME280;46163;52.306;5.634;2022-11-27T04:32:47;102103.72;;;15.42;59.30
60319;BME280;46163;52.306;5.634;2022-11-27T04:35:13;102113.41;;;15.43;59.42
60319;BME280;46163;52.306;5.634;2022-11-27T04:37:39;102117.53;;;15.46;59.48
60319;BME280;46163;52.306;5.634;2022-11-27T04:40:05;102112.81;;;15.48;59.20
60319;BME280;46163;52.306;5.634;2022-11-27T04:42:31;102103.75;;;15.49;59.31
60319;BME280;46163;52.306;5.634;2022-11-27T04:44:56;102102.94;;;15.55;59.11
60319;BME280;46163;52.306;5.634;2022-11-27T04:47:22;102105.66;;;15.62;58.95
60319;BME280;46163;52.306;5.634;2022-11-27T04:49:47;102099.28;;;15.69;58.83
60319;BME280;46163;52.306;5.634;2022-11-27T04:52:12;102086.50;;;15.78;58.63
60319;BME280;46163;52.306;5.634;2022-11-27T04:54:38;102082.78;;;15.86;58.49
60319;BME280;46163;52.306;5.634;2022-11-27T04:57:03;102075.56;;;15.93;58.45
60319;BME280;46163;52.306;5.634;2022-11-27T04:59:29;102086.72;;;16.03;58.17
60319;BME280;46163;52.306;5.634;2022-11-27T05:01:54;102078.88;;;16.08;57.87
60319;BME280;46163;52.306;5.634;2022-11-27T05:04:20;102083.41;;;16.14;57.93
60319;BME280;46163;52.306;5.634;2022-11-27T05:06:45;102068.53;;;16.18;57.65
60319;BME280;46163;52.306;5.634;2022-11-27T05:09:11;102061.50;;;16.24;57.59
60319;BME280;46163;52.306;5.634;2022-11-27T05:11:38;102055.50;;;16.28;57.42
60319;BME280;46163;52.306;5.634;2022-11-27T05:14:03;102056.34;;;16.35;57.39
60319;BME280;46163;52.306;5.634;2022-11-27T05:16:47;102052.78;;;16.42;57.21
60319;BME280;46163;52.306;5.634;2022-11-27T05:19:15;102057.53;;;16.46;57.24
60319;BME280;46163;52.306;5.634;2022-11-27T05:21:41;102065.81;;;16.51;57.08
60319;BME280;46163;52.306;5.634;2022-11-27T05:24:06;102058.75;;;16.57;57.05
60319;BME280;46163;52.306;5.634;2022-11-27T05:26:32;102061.66;;;16.62;56.79
60319;BME280;46163;52.306;5.634;2022-11-27T05:28:58;102040.97;;;16.56;56.64
60319;BME280;46163;52.306;5.634;2022-11-27T05:31:24;102052.94;;;16.73;56.55
60319;BME280;46163;52.306;5.634;2022-11-27T05:33:49;102047.78;;;16.78;56.36
60319;BME280;46163;52.306;5.634;2022-11-27T05:36:16;102030.16;;;16.82;56.43
60319;BME280;46163;52.306;5.634;2022-11-27T05:38:42;102036.78;;;16.86;56.31
60319;BME280;46163;52.306;5.634;2022-11-27T05:41:08;102037.19;;;16.90;56.26
60319;BME280;46163;52.306;5.634;2022-11-27T05:43:33;102033.03;;;16.94;56.05
60319;BME280;46163;52.306;5.634;2022-11-27T05:46:04;102032.38;;;16.99;56.05
60319;BME280;46163;52.306;5.634;2022-11-27T05:48:30;102023.06;;;17.01;55.94
60319;BME280;46163;52.306;5.634;2022-11-27T05:50:56;102023.63;;;17.10;55.80
60319;BME280;46163;52.306;5.634;2022-11-27T05:53:21;102011.41;;;17.14;55.98
60319;BME280;46163;52.306;5.634;2022-11-27T05:55:47;102007.25;;;17.18;55.46
60319;BME280;46163;52.306;5.634;2022-11-27T05:58:12;102018.19;;;17.23;55.73
60319;BME280;46163;52.306;5.634;2022-11-27T06:00:38;102014.22;;;17.26;55.36
60319;BME280;46163;52.306;5.634;2022-11-27T06:03:04;102017.34;;;17.29;55.14
60319;BME280;46163;52.306;5.634;2022-11-27T06:05:30;102008.81;;;17.32;55.31
60319;BME280;46163;52.306;5.634;2022-11-27T06:07:55;102012.94;;;17.35;55.08
60319;BME280;46163;52.306;5.634;2022-11-27T06:10:21;102008.97;;;17.37;55.21
60319;BME280;46163;52.306;5.634;2022-11-27T06:12:46;102003.41;;;17.39;55.11
60319;BME280;46163;52.306;5.634;2022-11-27T06:15:12;102003.78;;;17.42;54.98
60319;BME280;46163;52.306;5.634;2022-11-27T06:17:37;102001.69;;;17.44;55.05
60319;BME280;46163;52.306;5.634;2022-11-27T06:20:03;102002.31;;;17.46;55.06
60319;BME280;46163;52.306;5.634;2022-11-27T06:22:29;102001.06;;;17.49;54.82
60319;BME280;46163;52.306;5.634;2022-11-27T06:24:55;102000.81;;;17.50;54.97
60319;BME280;46163;52.306;5.634;2022-11-27T06:27:21;102001.44;;;17.52;54.92
60319;BME280;46163;52.306;5.634;2022-11-27T06:29:47;101994.56;;;17.57;54.88
60319;BME280;46163;52.306;5.634;2022-11-27T06:32:12;101987.09;;;17.59;54.80
60319;BME280;46163;52.306;5.634;2022-11-27T06:34:38;101996.81;;;17.60;54.70
60319;BME280;46163;52.306;5.634;2022-11-27T06:37:03;101993.91;;;17.61;54.61
60319;BME280;46163;52.306;5.634;2022-11-27T06:39:29;101995.56;;;17.62;54.71
60319;BME280;46163;52.306;5.634;2022-11-27T06:41:55;101991.81;;;17.63;54.91
60319;BME280;46163;52.306;5.634;2022-11-27T06:44:20;102005.06;;;17.65;54.76
60319;BME280;46163;52.306;5.634;2022-11-27T06:46:46;102000.50;;;17.65;54.56
60319;BME280;46163;52.306;5.634;2022-11-27T06:49:11;101998.66;;;17.66;54.59
60319;BME280;46163;52.306;5.634;2022-11-27T06:51:37;101996.56;;;17.68;54.66
60319;BME280;46163;52.306;5.634;2022-11-27T06:54:03;101996.31;;;17.69;54.49
60319;BME280;46163;52.306;5.634;2022-11-27T06:56:31;101990.94;;;17.69;54.50
60319;BME280;46163;52.306;5.634;2022-11-27T06:58:58;101992.41;;;17.72;54.18
60319;BME280;46163;52.306;5.634;2022-11-27T07:01:25;102004.84;;;17.73;54.50
60319;BME280;46163;52.306;5.634;2022-11-27T07:03:51;101994.91;;;17.73;54.37
60319;BME280;46163;52.306;5.634;2022-11-27T07:06:19;101994.66;;;17.75;54.36
60319;BME280;46163;52.306;5.634;2022-11-27T07:08:45;101975.00;;;17.74;54.55
60319;BME280;46163;52.306;5.634;2022-11-27T07:11:13;101979.34;;;17.75;54.51
60319;BME280;46163;52.306;5.634;2022-11-27T07:13:39;101979.09;;;17.77;54.22
60319;BME280;46163;52.306;5.634;2022-11-27T07:16:07;101971.25;;;17.75;54.51
60319;BME280;46163;52.306;5.634;2022-11-27T07:18:38;101936.31;;;17.62;54.36
60319;BME280;46163;52.306;5.634;2022-11-27T07:21:04;101954.06;;;17.76;54.45
60319;BME280;46163;52.306;5.634;2022-11-27T07:23:30;101956.16;;;17.74;54.19
60319;BME280;46163;52.306;5.634;2022-11-27T07:25:55;101946.56;;;17.78;54.21
60319;BME280;46163;52.306;5.634;2022-11-27T07:28:21;101947.63;;;17.77;54.33
60319;BME280;46163;52.306;5.634;2022-11-27T07:30:54;101953.59;;;17.79;54.34
60319;BME280;46163;52.306;5.634;2022-11-27T07:33:20;101935.56;;;17.80;54.27
60319;BME280;46163;52.306;5.634;2022-11-27T07:35:46;101934.75;;;17.79;54.02
60319;BME280;46163;52.306;5.634;2022-11-27T07:38:11;101936.41;;;17.80;54.24
60319;BME280;46163;52.306;5.634;2022-11-27T07:40:37;101916.72;;;17.80;54.20
60319;BME280;46163;52.306;5.634;2022-11-27T07:43:02;101911.16;;;17.82;54.27
60319;BME280;46163;52.306;5.634;2022-11-27T07:45:28;101919.22;;;17.82;54.35
60319;BME280;46163;52.306;5.634;2022-11-27T07:47:53;101911.16;;;17.82;54.11
60319;BME280;46163;52.306;5.634;2022-11-27T07:50:19;101918.16;;;17.83;54.31
60319;BME280;46163;52.306;5.634;2022-11-27T07:52:44;101913.84;;;17.82;54.12
60319;BME280;46163;52.306;5.634;2022-11-27T07:55:10;101913.84;;;17.82;54.30
60319;BME280;46163;52.306;5.634;2022-11-27T07:57:35;101911.16;;;17.82;54.26
60319;BME280;46163;52.306;5.634;2022-11-27T08:00:01;101909.28;;;17.82;54.19
60319;BME280;46163;52.306;5.634;2022-11-27T08:02:26;101917.13;;;17.84;54.26
60319;BME280;46163;52.306;5.634;2022-11-27T08:04:52;101911.50;;;17.85;54.16
60319;BME280;46163;52.306;5.634;2022-11-27T08:07:17;101916.06;;;17.85;54.15
60319;BME280;46163;52.306;5.634;2022-11-27T08:09:42;101919.00;;;17.83;54.30
60319;BME280;46163;52.306;5.634;2022-11-27T08:12:08;101909.03;;;17.84;54.14
60319;BME280;46163;52.306;5.634;2022-11-27T08:14:33;101915.25;;;17.84;54.04
60319;BME280;46163;52.306;5.634;2022-11-27T08:16:59;101907.16;;;17.84;54.31
60319;BME280;46163;52.306;5.634;2022-11-27T08:19:24;101904.25;;;17.86;54.28
60319;BME280;46163;52.306;5.634;2022-11-27T08:21:50;101915.03;;;17.86;54.35
60319;BME280;46163;52.306;5.634;2022-11-27T08:24:16;101916.91;;;17.85;54.23
60319;BME280;46163;52.306;5.634;2022-11-27T08:26:42;101905.31;;;17.85;54.17
60319;BME280;46163;52.306;5.634;2022-11-27T08:29:10;101906.94;;;17.86;54.33
60319;BME280;46163;52.306;5.634;2022-11-27T08:31:35;101905.06;;;17.86;54.30
60319;BME280;46163;52.306;5.634;2022-11-27T08:34:01;101899.47;;;17.88;54.29
60319;BME280;46163;52.306;5.634;2022-11-27T08:36:27;101890.56;;;17.87;54.33
60319;BME280;46163;52.306;5.634;2022-11-27T08:38:54;101882.72;;;17.86;54.45
60319;BME280;46163;52.306;5.634;2022-11-27T08:41:20;101885.41;;;17.86;54.57
60319;BME280;46163;52.306;5.634;2022-11-27T08:43:45;101895.13;;;17.87;54.53
60319;BME280;46163;52.306;5.634;2022-11-27T08:46:11;101861.53;;;17.71;54.58
60319;BME280;46163;52.306;5.634;2022-11-27T08:48:37;101896.16;;;17.86;54.41
60319;BME280;46163;52.306;5.634;2022-11-27T08:51:11;101896.16;;;17.86;54.36
60319;BME280;46163;52.306;5.634;2022-11-27T08:53:38;101900.75;;;17.85;54.71
60319;BME280;46163;52.306;5.634;2022-11-27T08:56:22;101915.63;;;17.88;54.51
60319;BME280;46163;52.306;5.634;2022-11-27T08:58:48;101911.06;;;17.88;54.64
60319;BME280;46163;52.306;5.634;2022-11-27T09:01:19;101917.88;;;17.91;54.71
60319;BME280;46163;52.306;5.634;2022-11-27T09:03:48;101896.53;;;17.89;54.58
60319;BME280;46163;52.306;5.634;2022-11-27T09:06:17;101904.84;;;17.88;54.62
60319;BME280;46163;52.306;5.634;2022-11-27T09:08:46;101910.22;;;17.88;54.41
60319;BME280;46163;52.306;5.634;2022-11-27T09:11:14;101916.44;;;17.88;54.45
60319;BME280;46163;52.306;5.634;2022-11-27T09:13:41;101908.34;;;17.88;54.31
60319;BME280;46163;52.306;5.634;2022-11-27T09:16:09;101908.59;;;17.87;54.41
60319;BME280;46163;52.306;5.634;2022-11-27T09:18:35;101907.75;;;17.86;54.46
60319;BME280;46163;52.306;5.634;2022-11-27T09:21:08;101901.56;;;17.86;54.70
60319;BME280;46163;52.306;5.634;2022-11-27T09:23:34;101911.50;;;17.85;54.48
60319;BME280;46163;52.306;5.634;2022-11-27T09:26:05;101901.19;;;17.82;54.91
60319;BME280;46163;52.306;5.634;2022-11-27T09:28:32;101897.06;;;17.79;54.99
60319;BME280;46163;52.306;5.634;2022-11-27T09:31:00;101886.09;;;17.81;54.56
60319;BME280;46163;52.306;5.634;2022-11-27T09:33:27;101887.09;;;17.80;54.61
60319;BME280;46163;52.306;5.634;2022-11-27T09:35:54;101895.41;;;17.78;54.44
60319;BME280;46163;52.306;5.634;2022-11-27T09:38:20;101889.44;;;17.76;54.58
60319;BME280;46163;52.306;5.634;2022-11-27T09:40:50;101880.53;;;17.76;54.77
60319;BME280;46163;52.306;5.634;2022-11-27T09:43:18;101877.66;;;17.71;54.54
60319;BME280;46163;52.306;5.634;2022-11-27T09:45:51;101878.06;;;17.74;54.51
60319;BME280;46163;52.306;5.634;2022-11-27T09:48:23;101881.59;;;17.75;54.48
60319;BME280;46163;52.306;5.634;2022-11-27T09:50:51;101871.88;;;17.74;54.61
60319;BME280;46163;52.306;5.634;2022-11-27T09:53:37;101877.25;;;17.74;54.35
60319;BME280;46163;52.306;5.634;2022-11-27T09:56:09;101870.81;;;17.75;54.58
60319;BME280;46163;52.306;5.634;2022-11-27T09:58:44;101860.63;;;17.77;54.68
60319;BME280;46163;52.306;5.634;2022-11-27T10:01:14;101858.41;;;17.74;54.67
60319;BME280;46163;52.306;5.634;2022-11-27T10:03:41;101860.41;;;17.78;54.51
60319;BME280;46163;52.306;5.634;2022-11-27T10:11:55;101855.03;;;17.78;54.47
60319;BME280;46163;52.306;5.634;2022-11-27T10:14:29;101842.38;;;17.79;54.54
60319;BME280;46163;52.306;5.634;2022-11-27T10:17:13;101841.56;;;17.78;54.47
60319;BME280;46163;52.306;5.634;2022-11-27T10:22:52;101843.81;;;17.82;54.52
60319;BME280;46163;52.306;5.634;2022-11-27T10:25:27;101832.22;;;17.81;54.71
60319;BME280;46163;52.306;5.634;2022-11-27T10:28:03;101830.38;;;17.82;54.56
60319;BME280;46163;52.306;5.634;2022-11-27T10:31:28;101833.88;;;17.82;54.31
60319;BME280;46163;52.306;5.634;2022-11-27T10:33:56;101832.81;;;17.83;54.52
60319;BME280;46163;52.306;5.634;2022-11-27T10:36:35;101829.09;;;17.84;54.59
60319;BME280;46163;52.306;5.634;2022-11-27T10:39:06;101826.97;;;17.86;54.42
60319;BME280;46163;52.306;5.634;2022-11-27T10:41:43;101823.22;;;17.87;54.41
60319;BME280;46163;52.306;5.634;2022-11-27T10:44:36;101819.72;;;17.87;54.64
60319;BME280;46163;52.306;5.634;2022-11-27T10:47:06;101789.47;;;17.73;54.40
60319;BME280;46163;52.306;5.634;2022-11-27T10:49:34;101795.72;;;17.85;54.32
60319;BME280;46163;52.306;5.634;2022-11-27T10:52:01;101797.13;;;17.88;54.52
60319;BME280;46163;52.306;5.634;2022-11-27T10:54:33;101792.56;;;17.88;54.73
60319;BME280;46163;52.306;5.634;2022-11-27T10:57:49;101798.19;;;17.87;54.64
60319;BME280;46163;52.306;5.634;2022-11-27T11:00:18;101797.94;;;17.88;54.75
60319;BME280;46163;52.306;5.634;2022-11-27T11:02:45;101791.75;;;17.88;54.56
60319;BME280;46163;52.306;5.634;2022-11-27T11:05:24;101787.63;;;17.85;54.58
60319;BME280;46163;52.306;5.634;2022-11-27T11:08:04;101785.19;;;17.84;54.59
60319;BME280;46163;52.306;5.634;2022-11-27T11:10:36;101779.78;;;17.84;55.12
60319;BME280;46163;52.306;5.634;2022-11-27T11:18:45;101757.44;;;17.83;54.97
60319;BME280;46163;52.306;5.634;2022-11-27T11:21:15;101755.31;;;17.85;54.12
60319;BME280;46163;52.306;5.634;2022-11-27T11:23:42;101751.13;;;17.89;54.01
60319;BME280;46163;52.306;5.634;2022-11-27T11:28:53;101737.81;;;17.94;53.17
60319;BME280;46163;52.306;5.634;2022-11-27T11:31:33;101738.28;;;17.91;53.43
60319;BME280;46163;52.306;5.634;2022-11-27T11:34:03;101727.03;;;17.94;53.13
60319;BME280;46163;52.306;5.634;2022-11-27T11:36:35;101728.09;;;17.93;53.02
60319;BME280;46163;52.306;5.634;2022-11-27T11:39:27;101718.38;;;17.92;53.53
60319;BME280;46163;52.306;5.634;2022-11-27T11:41:55;101715.53;;;17.87;54.08
60319;BME280;46163;52.306;5.634;2022-11-27T11:44:40;101723.38;;;17.89;54.40
60319;BME280;46163;52.306;5.634;2022-11-27T11:47:18;101704.31;;;17.90;54.57
60319;BME280;46163;52.306;5.634;2022-11-27T11:49:44;101716.72;;;17.91;54.83
60319;BME280;46163;52.306;5.634;2022-11-27T11:54:58;101691.19;;;17.94;55.25
60319;BME280;46163;52.306;5.634;2022-11-27T11:57:39;101693.66;;;17.95;55.46
60319;BME280;46163;52.306;5.634;2022-11-27T12:00:13;101697.19;;;17.96;55.42
60319;BME280;46163;52.306;5.634;2022-11-27T12:11:43;101692.16;;;17.99;55.98
60319;BME280;46163;52.306;5.634;2022-11-27T12:14:27;101689.47;;;17.99;56.11
60319;BME280;46163;52.306;5.634;2022-11-27T12:17:02;101687.00;;;17.98;56.29
60319;BME280;46163;52.306;5.634;2022-11-27T12:19:51;101671.69;;;17.98;56.28
60319;BME280;46163;52.306;5.634;2022-11-27T12:23:27;101671.06;;;17.96;56.12
60319;BME280;46163;52.306;5.634;2022-11-27T12:36:55;101626.44;;;17.89;55.94
60319;BME280;46163;52.306;5.634;2022-11-27T12:39:58;101620.22;;;17.88;55.96
60319;BME280;46163;52.306;5.634;2022-11-27T12:42:38;101612.38;;;17.87;55.94
60319;BME280;46163;52.306;5.634;2022-11-27T12:45:26;101615.31;;;17.85;56.02
60319;BME280;46163;52.306;5.634;2022-11-27T12:48:20;101615.78;;;17.82;56.12
60319;BME280;46163;52.306;5.634;2022-11-27T12:51:02;101624.91;;;17.81;56.27
60319;BME280;46163;52.306;5.634;2022-11-27T12:53:36;101617.03;;;17.79;56.20
60319;BME280;46163;52.306;5.634;2022-11-27T12:56:17;101606.97;;;17.75;56.52
60319;BME280;46163;52.306;5.634;2022-11-27T12:59:03;101598.13;;;17.68;56.75
60319;BME280;46163;52.306;5.634;2022-11-27T13:01:46;101593.13;;;17.71;56.70
60319;BME280;46163;52.306;5.634;2022-11-27T13:04:39;101587.75;;;17.71;56.84
60319;BME280;46163;52.306;5.634;2022-11-27T13:13:05;101580.81;;;17.64;57.98
60319;BME280;46163;52.306;5.634;2022-11-27T13:16:04;101585.66;;;17.73;58.15
60319;BME280;46163;52.306;5.634;2022-11-27T13:21:11;101584.25;;;17.71;59.78
60319;BME280;46163;52.306;5.634;2022-11-27T13:23:37;101588.56;;;17.72;60.50
60319;BME280;46163;52.306;5.634;2022-11-27T13:26:18;101581.09;;;17.74;61.48
60319;BME280;46163;52.306;5.634;2022-11-27T13:28:51;101566.31;;;17.65;62.20
60319;BME280;46163;52.306;5.634;2022-11-27T13:31:31;101578.19;;;17.75;62.67
60319;BME280;46163;52.306;5.634;2022-11-27T13:34:18;101573.97;;;17.79;62.75
60319;BME280;46163;52.306;5.634;2022-11-27T13:36:46;101571.75;;;17.88;61.93
60319;BME280;46163;52.306;5.634;2022-11-27T13:39:39;101577.75;;;18.02;61.00
60319;BME280;46163;52.306;5.634;2022-11-27T13:44:44;101574.97;;;18.08;60.05
60319;BME280;46163;52.306;5.634;2022-11-27T13:47:17;101566.16;;;18.01;60.23
60319;BME280;46163;52.306;5.634;2022-11-27T13:49:57;101554.22;;;17.97;59.84
60319;BME280;46163;52.306;5.634;2022-11-27T13:52:27;101557.97;;;17.96;59.69
60319;BME280;46163;52.306;5.634;2022-11-27T13:54:58;101548.25;;;17.95;59.87
60319;BME280;46163;52.306;5.634;2022-11-27T13:57:26;101536.88;;;17.93;59.64
60319;BME280;46163;52.306;5.634;2022-11-27T14:02:38;101529.38;;;17.95;59.29
60319;BME280;46163;52.306;5.634;2022-11-27T14:05:04;101527.28;;;17.97;58.96
60319;BME280;46163;52.306;5.634;2022-11-27T14:07:38;101522.72;;;17.98;58.93
60319;BME280;46163;52.306;5.634;2022-11-27T14:10:17;101517.94;;;18.00;58.63
60319;BME280;46163;52.306;5.634;2022-11-27T14:18:52;101502.34;;;18.02;57.75
60319;BME280;46163;52.306;5.634;2022-11-27T14:21:25;101515.59;;;18.03;57.72
60319;BME280;46163;52.306;5.634;2022-11-27T14:23:55;101506.44;;;18.04;57.67
60319;BME280;46163;52.306;5.634;2022-11-27T14:26:22;101494.03;;;18.03;57.66
60319;BME280;46163;52.306;5.634;2022-11-27T14:28:49;101492.53;;;18.07;57.69
60319;BME280;46163;52.306;5.634;2022-11-27T14:33:53;101490.84;;;18.06;57.64